sensor_id;sensor_type;location;lat;lon;timestamp;temperature;humidity
30063;DHT22;16889;67.864;24.990;2022-07-17T00:02:13;12.40;99.90
30063;DHT22;16889;67.864;24.990;2022-07-17T00:06:59;12.30;99.90
30063;DHT22;16889;67.864;24.990;2022-07-17T00:11:45;12.40;99.90
30063;DHT22;16889;67.864;24.990;2022-07-17T00:16:31;12.40;99.90
30063;DHT22;16889;67.864;24.990;2022-07-17T00:21:17;12.30;99.90
30063;DHT22;16889;67.864;24.990;2022-07-17T00:26:04;12.50;99.90
30063;DHT22;16889;67.864;24.990;2022-07-17T00:30:50;12.30;99.90
30063;DHT22;16889;67.864;24.990;2022-07-17T00:35:36;12.20;99.90
30063;DHT22;16889;67.864;24.990;2022-07-17T00:40:23;12.20;99.90
30063;DHT22;16889;67.864;24.990;2022-07-17T00:45:10;12.20;99.90
30063;DHT22;16889;67.864;24.990;2022-07-17T00:49:57;12.20;99.90
30063;DHT22;16889;67.864;24.990;2022-07-17T00:54:44;12.20;99.90
30063;DHT22;16889;67.864;24.990;2022-07-17T00:59:31;12.40;99.90
30063;DHT22;16889;67.864;24.990;2022-07-17T01:04:18;12.50;99.90
30063;DHT22;16889;67.864;24.990;2022-07-17T01:09:05;12.40;99.90
30063;DHT22;16889;67.864;24.990;2022-07-17T01:13:51;12.40;99.90
30063;DHT22;16889;67.864;24.990;2022-07-17T01:18:37;12.30;99.90
30063;DHT22;16889;67.864;24.990;2022-07-17T01:23:24;12.30;99.90
30063;DHT22;16889;67.864;24.990;2022-07-17T01:28:10;12.40;99.90
30063;DHT22;16889;67.864;24.990;2022-07-17T01:32:56;12.40;99.90
30063;DHT22;16889;67.864;24.990;2022-07-17T01:37:43;12.40;99.90
30063;DHT22;16889;67.864;24.990;2022-07-17T01:42:29;12.50;99.90
30063;DHT22;16889;67.864;24.990;2022-07-17T01:47:17;12.50;99.90
30063;DHT22;16889;67.864;24.990;2022-07-17T01:52:03;12.60;99.90
30063;DHT22;16889;67.864;24.990;2022-07-17T01:56:49;12.60;99.90
30063;DHT22;16889;67.864;24.990;2022-07-17T02:01:35;12.70;99.90
30063;DHT22;16889;67.864;24.990;2022-07-17T02:06:21;12.70;99.90
30063;DHT22;16889;67.864;24.990;2022-07-17T02:11:07;12.70;99.90
30063;DHT22;16889;67.864;24.990;2022-07-17T02:15:53;12.80;99.90
30063;DHT22;16889;67.864;24.990;2022-07-17T02:20:39;12.90;99.90
30063;DHT22;16889;67.864;24.990;2022-07-17T02:25:27;12.90;99.90
30063;DHT22;16889;67.864;24.990;2022-07-17T02:30:16;13.20;99.90
30063;DHT22;16889;67.864;24.990;2022-07-17T02:35:03;13.30;99.90
30063;DHT22;16889;67.864;24.990;2022-07-17T02:39:49;13.40;99.90
30063;DHT22;16889;67.864;24.990;2022-07-17T02:44:40;13.50;99.90
30063;DHT22;16889;67.864;24.990;2022-07-17T02:49:26;13.40;99.90
30063;DHT22;16889;67.864;24.990;2022-07-17T02:54:12;13.30;99.90
30063;DHT22;16889;67.864;24.990;2022-07-17T02:58:58;13.30;99.90
30063;DHT22;16889;67.864;24.990;2022-07-17T03:03:44;13.30;99.90
30063;DHT22;16889;67.864;24.990;2022-07-17T03:08:30;13.30;99.90
30063;DHT22;16889;67.864;24.990;2022-07-17T03:13:16;13.30;99.90
30063;DHT22;16889;67.864;24.990;2022-07-17T03:18:02;13.30;99.90
30063;DHT22;16889;67.864;24.990;2022-07-17T03:22:49;13.20;99.90
30063;DHT22;16889;67.864;24.990;2022-07-17T03:27:35;13.20;99.90
30063;DHT22;16889;67.864;24.990;2022-07-17T03:32:21;13.20;99.90
30063;DHT22;16889;67.864;24.990;2022-07-17T03:37:08;13.20;99.90
30063;DHT22;16889;67.864;24.990;2022-07-17T03:41:53;13.20;99.90
30063;DHT22;16889;67.864;24.990;2022-07-17T03:46:39;13.10;99.90
30063;DHT22;16889;67.864;24.990;2022-07-17T03:51:26;13.20;99.90
30063;DHT22;16889;67.864;24.990;2022-07-17T03:56:12;13.30;99.90
30063;DHT22;16889;67.864;24.990;2022-07-17T04:00:58;13.30;99.90
30063;DHT22;16889;67.864;24.990;2022-07-17T04:05:44;13.40;99.90
30063;DHT22;16889;67.864;24.990;2022-07-17T04:10:30;13.50;99.90
30063;DHT22;16889;67.864;24.990;2022-07-17T04:15:16;13.40;99.90
30063;DHT22;16889;67.864;24.990;2022-07-17T04:20:22;13.50;99.90
30063;DHT22;16889;67.864;24.990;2022-07-17T04:25:08;13.60;99.90
30063;DHT22;16889;67.864;24.990;2022-07-17T04:29:54;13.70;99.90
30063;DHT22;16889;67.864;24.990;2022-07-17T04:34:40;13.80;99.90
30063;DHT22;16889;67.864;24.990;2022-07-17T04:39:27;13.90;99.90
30063;DHT22;16889;67.864;24.990;2022-07-17T04:44:13;14.00;99.90
30063;DHT22;16889;67.864;24.990;2022-07-17T04:48:59;14.00;99.90
30063;DHT22;16889;67.864;24.990;2022-07-17T04:53:45;14.10;99.90
30063;DHT22;16889;67.864;24.990;2022-07-17T04:58:31;14.20;99.90
30063;DHT22;16889;67.864;24.990;2022-07-17T05:03:17;14.30;99.90
30063;DHT22;16889;67.864;24.990;2022-07-17T05:08:03;14.30;99.90
30063;DHT22;16889;67.864;24.990;2022-07-17T05:12:49;14.30;99.90
30063;DHT22;16889;67.864;24.990;2022-07-17T05:17:35;14.50;99.90
30063;DHT22;16889;67.864;24.990;2022-07-17T05:22:21;14.40;99.90
30063;DHT22;16889;67.864;24.990;2022-07-17T05:27:07;14.60;99.90
30063;DHT22;16889;67.864;24.990;2022-07-17T05:31:53;14.60;99.90
30063;DHT22;16889;67.864;24.990;2022-07-17T05:36:39;14.70;99.90
30063;DHT22;16889;67.864;24.990;2022-07-17T05:41:25;14.90;99.90
30063;DHT22;16889;67.864;24.990;2022-07-17T05:46:11;14.80;99.90
30063;DHT22;16889;67.864;24.990;2022-07-17T05:50:58;14.70;99.90
30063;DHT22;16889;67.864;24.990;2022-07-17T05:55:44;14.60;99.90
30063;DHT22;16889;67.864;24.990;2022-07-17T06:00:30;14.70;99.90
30063;DHT22;16889;67.864;24.990;2022-07-17T06:05:17;14.70;99.90
30063;DHT22;16889;67.864;24.990;2022-07-17T06:10:07;14.60;99.90
30063;DHT22;16889;67.864;24.990;2022-07-17T06:14:53;14.40;99.90
30063;DHT22;16889;67.864;24.990;2022-07-17T06:19:38;14.50;99.90
30063;DHT22;16889;67.864;24.990;2022-07-17T06:24:25;14.60;99.90
30063;DHT22;16889;67.864;24.990;2022-07-17T06:29:10;14.60;99.90
30063;DHT22;16889;67.864;24.990;2022-07-17T06:33:56;14.40;99.90
30063;DHT22;16889;67.864;24.990;2022-07-17T06:38:42;14.50;99.90
30063;DHT22;16889;67.864;24.990;2022-07-17T06:43:28;14.40;99.90
30063;DHT22;16889;67.864;24.990;2022-07-17T06:48:14;14.70;99.90
30063;DHT22;16889;67.864;24.990;2022-07-17T06:53:00;14.90;99.90
30063;DHT22;16889;67.864;24.990;2022-07-17T06:57:46;14.90;99.90
30063;DHT22;16889;67.864;24.990;2022-07-17T07:02:32;15.40;99.90
30063;DHT22;16889;67.864;24.990;2022-07-17T07:07:18;15.10;99.90
30063;DHT22;16889;67.864;24.990;2022-07-17T07:12:04;15.20;99.90
30063;DHT22;16889;67.864;24.990;2022-07-17T07:16:50;15.00;99.90
30063;DHT22;16889;67.864;24.990;2022-07-17T07:21:36;15.10;99.90
30063;DHT22;16889;67.864;24.990;2022-07-17T07:26:23;15.00;99.90
30063;DHT22;16889;67.864;24.990;2022-07-17T07:31:10;15.00;99.90
30063;DHT22;16889;67.864;24.990;2022-07-17T07:35:56;14.80;99.90
30063;DHT22;16889;67.864;24.990;2022-07-17T07:40:42;14.80;99.90
30063;DHT22;16889;67.864;24.990;2022-07-17T07:45:28;14.50;99.90
30063;DHT22;16889;67.864;24.990;2022-07-17T07:50:15;14.50;99.90
30063;DHT22;16889;67.864;24.990;2022-07-17T07:55:01;14.60;99.90
30063;DHT22;16889;67.864;24.990;2022-07-17T07:59:46;14.70;99.90
30063;DHT22;16889;67.864;24.990;2022-07-17T08:04:33;14.80;99.90
30063;DHT22;16889;67.864;24.990;2022-07-17T08:09:18;14.70;99.90
30063;DHT22;16889;67.864;24.990;2022-07-17T08:14:04;14.70;99.90
30063;DHT22;16889;67.864;24.990;2022-07-17T08:18:50;14.80;99.90
30063;DHT22;16889;67.864;24.990;2022-07-17T08:23:36;14.80;99.90
30063;DHT22;16889;67.864;24.990;2022-07-17T08:28:22;14.80;99.90
30063;DHT22;16889;67.864;24.990;2022-07-17T08:33:09;15.20;99.90
30063;DHT22;16889;67.864;24.990;2022-07-17T08:37:55;16.40;99.90
30063;DHT22;16889;67.864;24.990;2022-07-17T08:42:42;17.40;99.90
30063;DHT22;16889;67.864;24.990;2022-07-17T08:47:28;17.10;99.90
30063;DHT22;16889;67.864;24.990;2022-07-17T08:52:15;16.70;99.90
30063;DHT22;16889;67.864;24.990;2022-07-17T08:57:02;16.90;99.90
30063;DHT22;16889;67.864;24.990;2022-07-17T09:01:49;17.40;99.90
30063;DHT22;16889;67.864;24.990;2022-07-17T09:06:38;17.20;99.90
30063;DHT22;16889;67.864;24.990;2022-07-17T09:11:24;16.70;99.90
30063;DHT22;16889;67.864;24.990;2022-07-17T09:16:11;17.00;99.90
30063;DHT22;16889;67.864;24.990;2022-07-17T09:20:58;17.90;99.90
30063;DHT22;16889;67.864;24.990;2022-07-17T09:25:50;18.00;99.90
30063;DHT22;16889;67.864;24.990;2022-07-17T09:30:39;17.80;99.90
30063;DHT22;16889;67.864;24.990;2022-07-17T09:35:25;17.80;99.90
30063;DHT22;16889;67.864;24.990;2022-07-17T09:40:14;18.10;99.90
30063;DHT22;16889;67.864;24.990;2022-07-17T09:45:20;18.50;99.90
30063;DHT22;16889;67.864;24.990;2022-07-17T09:50:07;18.50;99.90
30063;DHT22;16889;67.864;24.990;2022-07-17T09:54:54;18.60;99.90
30063;DHT22;16889;67.864;24.990;2022-07-17T09:59:41;18.90;99.90
30063;DHT22;16889;67.864;24.990;2022-07-17T10:04:28;18.50;99.90
30063;DHT22;16889;67.864;24.990;2022-07-17T10:09:15;18.40;99.90
30063;DHT22;16889;67.864;24.990;2022-07-17T10:14:10;18.70;99.90
30063;DHT22;16889;67.864;24.990;2022-07-17T10:18:57;19.70;99.90
30063;DHT22;16889;67.864;24.990;2022-07-17T10:28:46;23.70;98.60
30063;DHT22;16889;67.864;24.990;2022-07-17T10:33:32;23.40;95.00
30063;DHT22;16889;67.864;24.990;2022-07-17T10:38:18;23.40;96.20
30063;DHT22;16889;67.864;24.990;2022-07-17T10:43:05;23.60;90.30
30063;DHT22;16889;67.864;24.990;2022-07-17T10:53:14;23.00;93.50
30063;DHT22;16889;67.864;24.990;2022-07-17T10:58:23;22.50;95.50
30063;DHT22;16889;67.864;24.990;2022-07-17T11:03:11;22.90;97.70
30063;DHT22;16889;67.864;24.990;2022-07-17T11:07:58;23.30;87.90
30063;DHT22;16889;67.864;24.990;2022-07-17T11:12:46;22.70;91.60
30063;DHT22;16889;67.864;24.990;2022-07-17T11:17:32;21.50;95.80
30063;DHT22;16889;67.864;24.990;2022-07-17T11:22:22;21.00;97.60
30063;DHT22;16889;67.864;24.990;2022-07-17T11:27:36;21.30;98.80
30063;DHT22;16889;67.864;24.990;2022-07-17T11:32:24;21.60;98.90
30063;DHT22;16889;67.864;24.990;2022-07-17T11:37:13;21.20;99.90
30063;DHT22;16889;67.864;24.990;2022-07-17T11:41:59;21.30;99.90
30063;DHT22;16889;67.864;24.990;2022-07-17T11:46:48;21.40;96.10
30063;DHT22;16889;67.864;24.990;2022-07-17T11:51:40;20.80;95.40
30063;DHT22;16889;67.864;24.990;2022-07-17T11:56:26;20.60;96.20
30063;DHT22;16889;67.864;24.990;2022-07-17T12:01:13;20.80;98.10
30063;DHT22;16889;67.864;24.990;2022-07-17T12:06:00;20.70;98.70
30063;DHT22;16889;67.864;24.990;2022-07-17T12:10:46;20.40;96.50
30063;DHT22;16889;67.864;24.990;2022-07-17T12:20:25;19.80;99.60
30063;DHT22;16889;67.864;24.990;2022-07-17T12:25:22;20.00;97.40
30063;DHT22;16889;67.864;24.990;2022-07-17T12:30:09;19.90;98.00
30063;DHT22;16889;67.864;24.990;2022-07-17T12:34:55;19.80;98.40
30063;DHT22;16889;67.864;24.990;2022-07-17T12:39:41;19.70;98.50
30063;DHT22;16889;67.864;24.990;2022-07-17T12:44:27;19.60;99.50
30063;DHT22;16889;67.864;24.990;2022-07-17T12:49:13;19.60;98.40
30063;DHT22;16889;67.864;24.990;2022-07-17T12:53:59;19.20;99.90
30063;DHT22;16889;67.864;24.990;2022-07-17T12:58:45;19.70;99.90
30063;DHT22;16889;67.864;24.990;2022-07-17T13:03:31;19.90;99.30
30063;DHT22;16889;67.864;24.990;2022-07-17T13:08:18;19.80;99.50
30063;DHT22;16889;67.864;24.990;2022-07-17T13:13:05;19.70;99.20
30063;DHT22;16889;67.864;24.990;2022-07-17T13:17:51;19.50;98.80
30063;DHT22;16889;67.864;24.990;2022-07-17T13:22:38;19.10;99.90
30063;DHT22;16889;67.864;24.990;2022-07-17T13:27:24;18.60;99.90
30063;DHT22;16889;67.864;24.990;2022-07-17T13:32:11;18.20;99.90
30063;DHT22;16889;67.864;24.990;2022-07-17T13:36:57;18.10;99.90
30063;DHT22;16889;67.864;24.990;2022-07-17T13:41:43;18.50;99.90
30063;DHT22;16889;67.864;24.990;2022-07-17T13:46:29;19.00;99.90
30063;DHT22;16889;67.864;24.990;2022-07-17T13:51:15;19.50;99.90
30063;DHT22;16889;67.864;24.990;2022-07-17T13:56:01;19.60;99.90
30063;DHT22;16889;67.864;24.990;2022-07-17T14:00:47;19.50;99.90
30063;DHT22;16889;67.864;24.990;2022-07-17T14:05:34;19.50;99.90
30063;DHT22;16889;67.864;24.990;2022-07-17T14:10:20;19.30;99.90
30063;DHT22;16889;67.864;24.990;2022-07-17T14:15:06;19.20;99.90
30063;DHT22;16889;67.864;24.990;2022-07-17T14:19:52;19.40;99.90
30063;DHT22;16889;67.864;24.990;2022-07-17T14:24:39;19.50;99.90
30063;DHT22;16889;67.864;24.990;2022-07-17T14:29:24;19.60;99.90
30063;DHT22;16889;67.864;24.990;2022-07-17T14:34:12;19.70;99.90
30063;DHT22;16889;67.864;24.990;2022-07-17T14:38:58;19.50;99.90
30063;DHT22;16889;67.864;24.990;2022-07-17T14:43:44;19.80;99.90
30063;DHT22;16889;67.864;24.990;2022-07-17T14:48:30;20.10;99.90
30063;DHT22;16889;67.864;24.990;2022-07-17T14:53:16;20.10;99.90
30063;DHT22;16889;67.864;24.990;2022-07-17T14:58:03;20.00;99.90
30063;DHT22;16889;67.864;24.990;2022-07-17T15:02:49;19.90;99.90
30063;DHT22;16889;67.864;24.990;2022-07-17T15:07:35;19.80;99.90
30063;DHT22;16889;67.864;24.990;2022-07-17T15:12:21;19.70;99.90
30063;DHT22;16889;67.864;24.990;2022-07-17T15:17:07;19.70;99.90
30063;DHT22;16889;67.864;24.990;2022-07-17T15:21:53;19.70;99.90
30063;DHT22;16889;67.864;24.990;2022-07-17T15:26:39;20.00;97.60
30063;DHT22;16889;67.864;24.990;2022-07-17T15:31:26;19.70;99.00
30063;DHT22;16889;67.864;24.990;2022-07-17T15:36:12;19.50;99.90
30063;DHT22;16889;67.864;24.990;2022-07-17T15:40:58;19.70;99.90
30063;DHT22;16889;67.864;24.990;2022-07-17T15:45:45;19.70;99.90
30063;DHT22;16889;67.864;24.990;2022-07-17T15:50:31;19.70;99.90
30063;DHT22;16889;67.864;24.990;2022-07-17T15:55:17;18.90;99.90
30063;DHT22;16889;67.864;24.990;2022-07-17T16:00:05;18.60;99.90
30063;DHT22;16889;67.864;24.990;2022-07-17T16:04:53;18.50;99.90
30063;DHT22;16889;67.864;24.990;2022-07-17T16:09:39;18.40;99.90
30063;DHT22;16889;67.864;24.990;2022-07-17T16:14:26;18.30;99.90
30063;DHT22;16889;67.864;24.990;2022-07-17T16:19:12;18.30;99.90
30063;DHT22;16889;67.864;24.990;2022-07-17T16:23:58;18.30;99.90
30063;DHT22;16889;67.864;24.990;2022-07-17T16:28:45;18.20;99.90
30063;DHT22;16889;67.864;24.990;2022-07-17T16:33:31;18.00;99.90
30063;DHT22;16889;67.864;24.990;2022-07-17T16:38:17;17.90;99.90
30063;DHT22;16889;67.864;24.990;2022-07-17T16:43:03;17.80;99.90
30063;DHT22;16889;67.864;24.990;2022-07-17T16:47:49;17.80;99.90
30063;DHT22;16889;67.864;24.990;2022-07-17T16:52:35;17.80;99.90
30063;DHT22;16889;67.864;24.990;2022-07-17T16:57:21;17.80;99.90
30063;DHT22;16889;67.864;24.990;2022-07-17T17:02:07;17.80;99.90
30063;DHT22;16889;67.864;24.990;2022-07-17T17:06:53;17.70;99.90
30063;DHT22;16889;67.864;24.990;2022-07-17T17:11:39;17.50;99.90
30063;DHT22;16889;67.864;24.990;2022-07-17T17:16:26;17.60;99.90
30063;DHT22;16889;67.864;24.990;2022-07-17T17:21:12;17.10;99.90
30063;DHT22;16889;67.864;24.990;2022-07-17T17:25:58;17.20;99.90
30063;DHT22;16889;67.864;24.990;2022-07-17T17:30:45;17.30;99.90
30063;DHT22;16889;67.864;24.990;2022-07-17T17:35:34;17.20;99.90
30063;DHT22;16889;67.864;24.990;2022-07-17T17:40:20;17.00;99.90
30063;DHT22;16889;67.864;24.990;2022-07-17T17:45:06;16.70;99.90
30063;DHT22;16889;67.864;24.990;2022-07-17T17:49:52;16.70;99.90
30063;DHT22;16889;67.864;24.990;2022-07-17T17:54:38;16.80;99.90
30063;DHT22;16889;67.864;24.990;2022-07-17T17:59:24;16.70;99.90
30063;DHT22;16889;67.864;24.990;2022-07-17T18:04:11;16.60;99.90
30063;DHT22;16889;67.864;24.990;2022-07-17T18:08:58;16.50;99.90
30063;DHT22;16889;67.864;24.990;2022-07-17T18:13:44;16.30;99.90
30063;DHT22;16889;67.864;24.990;2022-07-17T18:18:30;16.20;99.90
30063;DHT22;16889;67.864;24.990;2022-07-17T18:23:16;16.10;99.90
30063;DHT22;16889;67.864;24.990;2022-07-17T18:28:03;16.00;99.90
30063;DHT22;16889;67.864;24.990;2022-07-17T18:32:53;15.70;99.90
30063;DHT22;16889;67.864;24.990;2022-07-17T18:37:39;15.60;99.90
30063;DHT22;16889;67.864;24.990;2022-07-17T18:42:25;15.50;99.90
30063;DHT22;16889;67.864;24.990;2022-07-17T18:47:11;15.50;99.90
30063;DHT22;16889;67.864;24.990;2022-07-17T18:51:57;15.40;99.90
30063;DHT22;16889;67.864;24.990;2022-07-17T18:56:43;15.40;99.90
30063;DHT22;16889;67.864;24.990;2022-07-17T19:01:30;15.30;99.90
30063;DHT22;16889;67.864;24.990;2022-07-17T19:06:15;15.30;99.90
30063;DHT22;16889;67.864;24.990;2022-07-17T19:11:03;15.10;99.90
30063;DHT22;16889;67.864;24.990;2022-07-17T19:15:49;15.10;99.90
30063;DHT22;16889;67.864;24.990;2022-07-17T19:20:35;15.10;99.90
30063;DHT22;16889;67.864;24.990;2022-07-17T19:25:21;15.00;99.90
30063;DHT22;16889;67.864;24.990;2022-07-17T19:30:08;14.90;99.90
30063;DHT22;16889;67.864;24.990;2022-07-17T19:34:54;14.70;99.90
30063;DHT22;16889;67.864;24.990;2022-07-17T19:39:40;14.60;99.90
30063;DHT22;16889;67.864;24.990;2022-07-17T19:44:27;14.50;99.90
30063;DHT22;16889;67.864;24.990;2022-07-17T19:49:13;14.10;99.90
30063;DHT22;16889;67.864;24.990;2022-07-17T19:53:59;14.00;99.90
30063;DHT22;16889;67.864;24.990;2022-07-17T19:58:48;14.10;99.90
30063;DHT22;16889;67.864;24.990;2022-07-17T20:03:34;14.10;99.90
30063;DHT22;16889;67.864;24.990;2022-07-17T20:08:21;14.10;99.90
30063;DHT22;16889;67.864;24.990;2022-07-17T20:13:07;14.10;99.90
30063;DHT22;16889;67.864;24.990;2022-07-17T20:17:53;13.90;99.90
30063;DHT22;16889;67.864;24.990;2022-07-17T20:22:39;13.70;99.90
30063;DHT22;16889;67.864;24.990;2022-07-17T20:27:25;13.60;99.90
30063;DHT22;16889;67.864;24.990;2022-07-17T20:32:11;13.60;99.90
30063;DHT22;16889;67.864;24.990;2022-07-17T20:36:57;13.50;99.90
30063;DHT22;16889;67.864;24.990;2022-07-17T20:41:44;13.20;99.90
30063;DHT22;16889;67.864;24.990;2022-07-17T20:46:30;13.00;99.90
30063;DHT22;16889;67.864;24.990;2022-07-17T20:51:16;12.90;99.90
30063;DHT22;16889;67.864;24.990;2022-07-17T20:56:03;12.70;99.90
30063;DHT22;16889;67.864;24.990;2022-07-17T21:00:49;12.60;99.90
30063;DHT22;16889;67.864;24.990;2022-07-17T21:05:35;12.60;99.90
30063;DHT22;16889;67.864;24.990;2022-07-17T21:10:22;12.60;99.90
30063;DHT22;16889;67.864;24.990;2022-07-17T21:15:08;12.80;99.90
30063;DHT22;16889;67.864;24.990;2022-07-17T21:19:54;12.90;99.90
30063;DHT22;16889;67.864;24.990;2022-07-17T21:24:40;12.90;99.90
30063;DHT22;16889;67.864;24.990;2022-07-17T21:29:26;12.80;99.90
30063;DHT22;16889;67.864;24.990;2022-07-17T21:34:13;12.80;99.90
30063;DHT22;16889;67.864;24.990;2022-07-17T21:38:59;12.90;99.90
30063;DHT22;16889;67.864;24.990;2022-07-17T21:43:45;12.70;99.90
30063;DHT22;16889;67.864;24.990;2022-07-17T21:48:31;12.70;99.90
30063;DHT22;16889;67.864;24.990;2022-07-17T21:53:18;12.70;99.90
30063;DHT22;16889;67.864;24.990;2022-07-17T21:58:04;12.80;99.90
30063;DHT22;16889;67.864;24.990;2022-07-17T22:02:51;12.70;99.90
30063;DHT22;16889;67.864;24.990;2022-07-17T22:07:37;12.50;99.90
30063;DHT22;16889;67.864;24.990;2022-07-17T22:12:23;12.50;99.90
30063;DHT22;16889;67.864;24.990;2022-07-17T22:17:10;12.30;99.90
30063;DHT22;16889;67.864;24.990;2022-07-17T22:21:56;12.50;99.90
30063;DHT22;16889;67.864;24.990;2022-07-17T22:26:43;12.40;99.90
30063;DHT22;16889;67.864;24.990;2022-07-17T22:31:29;12.40;99.90
30063;DHT22;16889;67.864;24.990;2022-07-17T22:36:15;12.40;99.90
30063;DHT22;16889;67.864;24.990;2022-07-17T22:41:01;12.50;99.90
30063;DHT22;16889;67.864;24.990;2022-07-17T22:45:47;12.50;99.90
30063;DHT22;16889;67.864;24.990;2022-07-17T22:50:33;12.50;99.90
30063;DHT22;16889;67.864;24.990;2022-07-17T22:55:19;12.40;99.90
30063;DHT22;16889;67.864;24.990;2022-07-17T23:00:06;12.30;99.90
30063;DHT22;16889;67.864;24.990;2022-07-17T23:04:53;12.30;99.90
30063;DHT22;16889;67.864;24.990;2022-07-17T23:09:39;12.40;99.90
30063;DHT22;16889;67.864;24.990;2022-07-17T23:14:25;12.40;99.90
30063;DHT22;16889;67.864;24.990;2022-07-17T23:19:11;12.40;99.90
30063;DHT22;16889;67.864;24.990;2022-07-17T23:23:57;12.50;99.90
30063;DHT22;16889;67.864;24.990;2022-07-17T23:28:43;12.60;99.90
30063;DHT22;16889;67.864;24.990;2022-07-17T23:33:29;12.60;99.90
30063;DHT22;16889;67.864;24.990;2022-07-17T23:38:15;12.50;99.90
30063;DHT22;16889;67.864;24.990;2022-07-17T23:43:01;12.30;99.90
30063;DHT22;16889;67.864;24.990;2022-07-17T23:47:47;12.20;99.90
30063;DHT22;16889;67.864;24.990;2022-07-17T23:52:34;12.10;99.90
30063;DHT22;16889;67.864;24.990;2022-07-17T23:57:20;12.00;99.90
